Wayana — PE5639 — position and weather

sailwx.info

Track history (hours):
 
Tides and Currents Weather Stations Pressure Air Temp Water Temp Dewpoint Dewpoint Depression Visibility Wind Speed Wind Dir Waves Ship Positions

Wayana

Last reported at 2017-Apr-30 13:21 UTC. Time now 2017-May-01 02:26 UTC.
Position N 52°55' E 005°03'.

Length 14 m.

Type: Sailing vessel. MMSI: 244020670.

Date/timePositionNaut miles runAvg speedWind from/ knotsBaromVisibWave heightAir tempDewpointWater temp
2017-Apr-30 13:21N 52°55' E 005°03'0 0.0
2017-Apr-30 13:00N 52°55' E 005°03'1 2.1
2017-Apr-30 12:30N 52°55' E 005°04'3 5.1
2017-Apr-30 12:00N 52°53' E 005°07'2 4.9
2017-Apr-30 11:30N 52°52' E 005°11'2 5.0
2017-Apr-30 11:00N 52°50' E 005°13'3 5.6
2017-Apr-30 10:30N 52°48' E 005°16'3 5.6
2017-Apr-30 10:00N 52°45' E 005°18'3 5.3
2017-Apr-30 09:30N 52°42' E 005°19'1 1.5
2017-Apr-30 08:59N 52°42' E 005°18'0 0.0
2017-Apr-30 08:29N 52°42' E 005°18'0 0.0
2017-Apr-30 07:59N 52°42' E 005°18'0 0.0
2017-Apr-30 07:29N 52°42' E 005°18'0 0.0
2017-Apr-28 20:14N 52°42' E 005°18'0 0.0
2017-Apr-28 19:59N 52°42' E 005°18'0 0.0
2017-Apr-28 19:29N 52°42' E 005°18'0 0.0
2017-Apr-28 18:59N 52°42' E 005°18'0 0.0
2017-Apr-28 18:29N 52°42' E 005°18'0 0.0
2017-Apr-28 17:59N 52°42' E 005°18'0 0.0
2017-Apr-28 17:29N 52°42' E 005°18'0 0.0
2017-Apr-28 16:59N 52°42' E 005°18'0 0.0
2017-Apr-28 16:29N 52°42' E 005°18'0 0.0
2017-Apr-28 15:59N 52°42' E 005°18'0 0.0
2017-Apr-28 15:29N 52°42' E 005°18'0 0.0
2017-Apr-28 14:59N 52°42' E 005°18'0 0.0
2017-Apr-28 13:58N 52°42' E 005°18'1 1.8
2017-Apr-28 13:29N 52°43' E 005°19'2 3.3
2017-Apr-28 13:01N 52°44' E 005°18'2 4.2
2017-Apr-28 12:30N 52°46' E 005°17'2 3.9
2017-Apr-28 12:00N 52°48' E 005°15'2 4.2
2017-Apr-28 11:30N 52°49' E 005°13'2 4.6
2017-Apr-28 11:00N 52°51' E 005°10'2 3.9
2017-Apr-28 10:30N 52°52' E 005°08'2 3.9
2017-Apr-28 10:00N 52°54' E 005°06'2 3.6
2017-Apr-28 09:31N 52°55' E 005°04'1 1.6
2017-Apr-28 09:00N 52°55' E 005°03'  
Track history (hours):
 
Tides and Currents Weather Stations Pressure Air Temp Water Temp Dewpoint Dewpoint Depression Visibility Wind Speed Wind Dir Waves Ship Positions

Wayana

Last reported at 2017-Apr-30 13:21 UTC. Time now 2017-May-01 02:26 UTC.
Position N 52°55' E 005°03'.

Length 14 m.

Type: Sailing vessel. MMSI: 244020670.

Date/timePositionNaut miles runAvg speedWind from/ knotsBaromVisibWave heightAir tempDewpointWater temp
2017-Apr-30 13:21N 52°55' E 005°03'0 0.0
2017-Apr-30 13:00N 52°55' E 005°03'1 2.1
2017-Apr-30 12:30N 52°55' E 005°04'3 5.1
2017-Apr-30 12:00N 52°53' E 005°07'2 4.9
2017-Apr-30 11:30N 52°52' E 005°11'2 5.0
2017-Apr-30 11:00N 52°50' E 005°13'3 5.6
2017-Apr-30 10:30N 52°48' E 005°16'3 5.6
2017-Apr-30 10:00N 52°45' E 005°18'3 5.3
2017-Apr-30 09:30N 52°42' E 005°19'1 1.5
2017-Apr-30 08:59N 52°42' E 005°18'0 0.0
2017-Apr-30 08:29N 52°42' E 005°18'0 0.0
2017-Apr-30 07:59N 52°42' E 005°18'0 0.0
2017-Apr-30 07:29N 52°42' E 005°18'0 0.0
2017-Apr-28 20:14N 52°42' E 005°18'0 0.0
2017-Apr-28 19:59N 52°42' E 005°18'0 0.0
2017-Apr-28 19:29N 52°42' E 005°18'0 0.0
2017-Apr-28 18:59N 52°42' E 005°18'0 0.0
2017-Apr-28 18:29N 52°42' E 005°18'0 0.0
2017-Apr-28 17:59N 52°42' E 005°18'0 0.0
2017-Apr-28 17:29N 52°42' E 005°18'0 0.0
2017-Apr-28 16:59N 52°42' E 005°18'0 0.0
2017-Apr-28 16:29N 52°42' E 005°18'0 0.0
2017-Apr-28 15:59N 52°42' E 005°18'0 0.0
2017-Apr-28 15:29N 52°42' E 005°18'0 0.0
2017-Apr-28 14:59N 52°42' E 005°18'0 0.0
2017-Apr-28 13:58N 52°42' E 005°18'1 1.8
2017-Apr-28 13:29N 52°43' E 005°19'2 3.3
2017-Apr-28 13:01N 52°44' E 005°18'2 4.2
2017-Apr-28 12:30N 52°46' E 005°17'2 3.9
2017-Apr-28 12:00N 52°48' E 005°15'2 4.2
2017-Apr-28 11:30N 52°49' E 005°13'2 4.6
2017-Apr-28 11:00N 52°51' E 005°10'2 3.9
2017-Apr-28 10:30N 52°52' E 005°08'2 3.9
2017-Apr-28 10:00N 52°54' E 005°06'2 3.6
2017-Apr-28 09:31N 52°55' E 005°04'1 1.6
2017-Apr-28 09:00N 52°55' E 005°03'  

Dump ship's entire track history